createdAt,value
2023-09-17T00:04:08.426Z,16.26
2023-09-17T00:09:10.472Z,16.16
2023-09-17T00:14:12.283Z,16.06
2023-09-17T00:19:14.553Z,16.00
2023-09-17T00:24:16.385Z,15.88
2023-09-17T00:29:18.213Z,15.78
2023-09-17T00:34:20.175Z,15.69
2023-09-17T00:39:22.033Z,15.61
2023-09-17T00:44:23.822Z,15.54
2023-09-17T00:49:26.226Z,15.50
2023-09-17T00:54:30.373Z,15.44
2023-09-17T00:59:32.331Z,15.38
2023-09-17T01:04:34.538Z,15.35
2023-09-17T01:09:38.538Z,15.36
2023-09-17T01:14:41.034Z,15.36
2023-09-17T01:19:44.249Z,15.31
2023-09-17T01:25:13.574Z,15.13
2023-09-17T01:30:18.179Z,15.05
2023-09-17T01:35:20.173Z,15.04
2023-09-17T01:40:23.552Z,14.97
2023-09-17T01:45:28.192Z,14.91
2023-09-17T01:50:31.819Z,14.84
2023-09-17T01:55:34.004Z,14.81
2023-09-17T02:00:35.861Z,14.76
2023-09-17T02:05:37.710Z,14.76
2023-09-17T02:10:41.942Z,14.77
2023-09-17T02:15:46.410Z,14.76
2023-09-17T02:20:48.574Z,14.74
2023-09-17T02:25:50.696Z,14.73
2023-09-17T02:30:52.551Z,14.75
2023-09-17T02:35:55.120Z,14.77
2023-09-17T02:40:57.160Z,14.73
2023-09-17T02:45:59.131Z,14.73
2023-09-17T02:51:03.938Z,14.74
2023-09-17T02:56:05.795Z,14.70
2023-09-17T03:01:19.531Z,14.64
2023-09-17T03:06:21.776Z,14.58
2023-09-17T03:11:24.744Z,14.56
2023-09-17T03:16:27.119Z,14.58
2023-09-17T03:21:29.238Z,14.57
2023-09-17T03:26:31.775Z,14.50
2023-09-17T03:31:35.873Z,14.46
2023-09-17T03:36:38.525Z,14.47
2023-09-17T03:41:42.113Z,14.48
2023-09-17T03:46:44.374Z,14.53
2023-09-17T03:51:46.650Z,14.51
2023-09-17T03:56:49.732Z,14.47
2023-09-17T04:01:51.822Z,14.53
2023-09-17T04:06:53.883Z,14.67
2023-09-17T04:11:55.666Z,14.81
2023-09-17T04:16:58.140Z,14.82
2023-09-17T04:22:00.694Z,14.89
2023-09-17T04:27:02.906Z,14.99
2023-09-17T04:32:05.038Z,15.09
2023-09-17T04:37:08.028Z,15.23
2023-09-17T04:42:09.892Z,15.36
2023-09-17T04:47:12.285Z,15.44
2023-09-17T04:52:14.468Z,15.53
2023-09-17T04:57:17.241Z,15.69
2023-09-17T05:02:19.535Z,15.80
2023-09-17T05:07:22.649Z,15.84
2023-09-17T05:12:38.266Z,15.91
2023-09-17T05:17:40.248Z,16.02
2023-09-17T05:22:42.384Z,16.20
2023-09-17T05:27:50.254Z,16.42
2023-09-17T05:32:56.347Z,16.62
2023-09-17T05:37:58.704Z,16.76
2023-09-17T05:43:00.717Z,16.90
2023-09-17T05:48:03.382Z,17.08
2023-09-17T05:53:05.742Z,17.19
2023-09-17T05:58:07.721Z,17.33
2023-09-17T06:03:10.397Z,17.53
2023-09-17T06:08:12.372Z,17.76
2023-09-17T06:13:14.139Z,18.00
2023-09-17T06:18:18.183Z,18.16
2023-09-17T06:23:20.426Z,18.33
2023-09-17T06:28:23.156Z,18.57
2023-09-17T06:33:25.417Z,18.85
2023-09-17T06:38:27.398Z,19.12
2023-09-17T06:43:32.193Z,19.41
2023-09-17T06:48:34.041Z,19.72
2023-09-17T06:53:35.867Z,20.03
2023-09-17T06:58:37.752Z,20.28
2023-09-17T07:03:40.107Z,20.57
2023-09-17T07:08:45.555Z,20.78
2023-09-17T07:13:47.428Z,20.94
2023-09-17T07:18:49.599Z,21.14
2023-09-17T07:23:52.266Z,21.34
2023-09-17T07:28:54.633Z,21.53
2023-09-17T07:33:56.570Z,21.69
2023-09-17T07:38:58.346Z,21.95
2023-09-17T07:44:00.233Z,22.17
2023-09-17T07:49:02.287Z,22.37
2023-09-17T07:54:04.239Z,22.63
2023-09-17T07:59:06.157Z,22.82
2023-09-17T08:04:10.829Z,23.01
2023-09-17T08:09:12.711Z,23.24
2023-09-17T08:14:15.804Z,23.43
2023-09-17T08:19:17.780Z,23.59
2023-09-17T08:24:21.855Z,23.57
2023-09-17T08:29:24.142Z,23.49
2023-09-17T08:34:25.925Z,23.38
2023-09-17T08:39:27.792Z,23.29
2023-09-17T08:44:59.751Z,23.20
2023-09-17T08:50:01.829Z,23.13
2023-09-17T08:55:06.240Z,23.15
2023-09-17T09:00:11.381Z,23.18
2023-09-17T09:05:16.298Z,23.23
2023-09-17T09:10:19.664Z,23.25
2023-09-17T09:15:22.419Z,23.32
2023-09-17T09:20:24.237Z,23.46
2023-09-17T09:25:28.211Z,23.59
2023-09-17T09:30:30.925Z,23.71
2023-09-17T09:35:33.011Z,23.85
2023-09-17T09:40:38.404Z,23.94
2023-09-17T09:45:42.318Z,24.03
2023-09-17T09:50:44.875Z,24.21
2023-09-17T09:55:48.184Z,24.39
2023-09-17T10:00:50.303Z,24.55
2023-09-17T10:05:52.192Z,24.64
2023-09-17T10:10:55.403Z,24.85
2023-09-17T10:15:57.612Z,25.15
2023-09-17T10:21:01.013Z,25.46
2023-09-17T10:26:04.747Z,25.87
2023-09-17T10:31:09.035Z,26.27
2023-09-17T10:36:12.576Z,26.60
2023-09-17T10:41:14.651Z,26.75
2023-09-17T10:46:17.089Z,26.87
2023-09-17T10:51:20.279Z,26.93
2023-09-17T10:56:23.583Z,26.89
2023-09-17T11:01:30.370Z,26.72
2023-09-17T11:06:36.035Z,26.64
2023-09-17T11:11:38.300Z,26.47
2023-09-17T11:16:40.176Z,26.26
2023-09-17T11:21:43.958Z,26.04
2023-09-17T11:26:47.220Z,25.94
2023-09-17T11:31:55.314Z,25.98
2023-09-17T11:36:59.221Z,26.14
2023-09-17T11:42:14.787Z,26.35
2023-09-17T11:47:18.637Z,26.63
2023-09-17T11:52:20.729Z,26.93
2023-09-17T11:57:26.954Z,27.02
2023-09-17T12:02:29.448Z,26.95
2023-09-17T12:07:42.276Z,26.82
2023-09-17T12:12:51.565Z,26.60
2023-09-17T12:17:54.131Z,26.53
2023-09-17T12:23:58.629Z,26.56
2023-09-17T12:29:00.575Z,26.73
2023-09-17T12:34:02.658Z,26.80
2023-09-17T12:39:05.711Z,26.87
2023-09-17T12:44:07.634Z,26.88
2023-09-17T12:49:10.175Z,26.92
2023-09-17T12:54:12.681Z,26.92
2023-09-17T12:59:14.547Z,26.92
2023-09-17T13:04:16.483Z,26.95
2023-09-17T13:09:18.632Z,27.09
2023-09-17T13:14:21.540Z,27.25
2023-09-17T13:19:23.684Z,27.40
2023-09-17T13:24:26.937Z,27.52
2023-09-17T13:29:41.466Z,27.49
2023-09-17T13:34:45.682Z,27.43
2023-09-17T13:39:50.991Z,27.36
2023-09-17T13:44:56.379Z,27.37
2023-09-17T13:49:59.913Z,27.28
2023-09-17T13:55:02.332Z,27.02
2023-09-17T14:00:04.619Z,26.84
2023-09-17T14:05:14.425Z,26.70
2023-09-17T14:10:18.048Z,26.79
2023-09-17T14:15:22.460Z,26.93
2023-09-17T14:20:24.259Z,27.15
2023-09-17T14:25:26.302Z,27.50
2023-09-17T14:30:29.268Z,27.71
2023-09-17T14:35:31.201Z,27.64
2023-09-17T14:40:33.221Z,27.59
2023-09-17T14:45:35.045Z,27.57
2023-09-17T14:50:36.922Z,27.56
2023-09-17T14:55:39.080Z,27.45
2023-09-17T15:00:40.871Z,27.46
2023-09-17T15:05:42.708Z,27.49
2023-09-17T15:10:44.843Z,27.53
2023-09-17T15:15:50.331Z,27.51
2023-09-17T15:20:52.126Z,27.45
2023-09-17T15:25:53.917Z,27.42
2023-09-17T15:30:55.854Z,27.31
2023-09-17T15:35:58.978Z,27.09
2023-09-17T15:41:04.679Z,26.87
2023-09-17T15:46:06.647Z,26.60
2023-09-17T15:51:08.492Z,26.29
2023-09-17T15:56:10.377Z,26.02
2023-09-17T16:01:12.381Z,25.72
2023-09-17T16:06:17.530Z,25.40
2023-09-17T16:11:19.583Z,25.09
2023-09-17T16:16:21.544Z,24.77
2023-09-17T16:21:23.380Z,24.45
2023-09-17T16:26:25.171Z,24.17
2023-09-17T16:31:27.977Z,23.91
2023-09-17T16:36:31.507Z,23.63
2023-09-17T16:41:33.459Z,23.36
2023-09-17T16:46:35.320Z,23.10
2023-09-17T16:51:45.110Z,22.81
2023-09-17T16:56:47.988Z,22.52
2023-09-17T17:01:49.943Z,22.20
2023-09-17T17:06:52.054Z,21.89
2023-09-17T17:11:54.752Z,21.60
2023-09-17T17:16:58.525Z,21.31
2023-09-17T17:22:00.482Z,21.03
2023-09-17T17:27:02.498Z,20.80
2023-09-17T17:32:04.795Z,20.61
2023-09-17T17:37:06.784Z,20.44
2023-09-17T17:42:08.539Z,20.28
2023-09-17T17:47:10.320Z,20.10
2023-09-17T17:52:12.134Z,19.90
2023-09-17T17:57:14.295Z,19.71
2023-09-17T18:02:16.380Z,19.57
2023-09-17T18:07:18.440Z,19.48
2023-09-17T18:12:20.489Z,19.31
2023-09-17T18:17:22.511Z,19.37
2023-09-17T18:22:24.604Z,19.29
2023-09-17T18:27:26.993Z,19.15
2023-09-17T18:32:28.762Z,19.00
2023-09-17T18:37:31.539Z,18.86
2023-09-17T18:42:34.566Z,18.75
2023-09-17T18:47:36.457Z,18.69
2023-09-17T18:52:38.375Z,18.64
2023-09-17T18:57:41.054Z,18.54
2023-09-17T19:02:44.672Z,18.42
2023-09-17T19:07:47.356Z,18.34
2023-09-17T19:12:57.499Z,18.30
2023-09-17T19:17:59.406Z,18.28
2023-09-17T19:23:01.375Z,18.26
2023-09-17T19:28:05.692Z,18.18
2023-09-17T19:33:07.840Z,18.09
2023-09-17T19:38:09.927Z,18.00
2023-09-17T19:43:12.072Z,18.00
2023-09-17T19:49:46.866Z,17.97
2023-09-17T19:55:28.918Z,18.00
2023-09-17T20:00:34.595Z,17.97
2023-09-17T20:05:36.892Z,17.94
2023-09-17T20:10:39.874Z,17.92
2023-09-17T20:15:46.427Z,17.85
2023-09-17T20:20:49.578Z,17.77
2023-09-17T20:25:51.577Z,17.70
2023-09-17T20:30:53.777Z,17.64
2023-09-17T20:35:56.358Z,17.60
2023-09-17T20:40:59.243Z,17.58
2023-09-17T20:46:01.101Z,17.51
2023-09-17T20:51:05.050Z,17.40
2023-09-17T20:56:07.518Z,17.30
2023-09-17T21:01:09.520Z,17.20
2023-09-17T21:06:11.722Z,17.12
2023-09-17T21:11:17.543Z,17.06
2023-09-17T21:16:19.936Z,16.93
2023-09-17T21:21:21.903Z,16.79
2023-09-17T21:26:24.958Z,16.73
2023-09-17T21:31:27.562Z,16.67
2023-09-17T21:36:30.185Z,16.58
2023-09-17T21:41:32.312Z,16.51
2023-09-17T21:46:35.483Z,16.44
2023-09-17T21:51:37.321Z,16.36
2023-09-17T21:56:39.313Z,16.32
2023-09-17T22:01:41.531Z,16.34
2023-09-17T22:06:43.568Z,16.34
2023-09-17T22:11:45.337Z,16.28
2023-09-17T22:16:47.233Z,16.22
2023-09-17T22:21:49.709Z,16.16
2023-09-17T22:26:52.141Z,16.15
2023-09-17T22:31:54.128Z,16.13
2023-09-17T22:36:57.693Z,16.10
2023-09-17T22:41:59.617Z,16.04
2023-09-17T22:47:01.523Z,16.01
2023-09-17T22:52:05.026Z,16.00
2023-09-17T22:57:07.057Z,15.98
2023-09-17T23:02:09.358Z,15.88
2023-09-17T23:07:11.226Z,15.79
2023-09-17T23:12:15.681Z,15.76
2023-09-17T23:17:18.693Z,15.73
2023-09-17T23:22:20.612Z,15.59
2023-09-17T23:27:25.053Z,15.49
2023-09-17T23:32:31.430Z,15.41
2023-09-17T23:37:33.401Z,15.36
2023-09-17T23:42:35.483Z,15.36
2023-09-17T23:47:37.376Z,15.41
2023-09-17T23:52:40.230Z,15.39
2023-09-17T23:57:42.295Z,15.33
